sensor_id;sensor_type;location;lat;lon;timestamp;P1;durP1;ratioP1;P2;durP2;ratioP2
16171;SDS011;8192;53.596;10.166;2023-08-12T00:01:38;19.90;;;18.23;;
16171;SDS011;8192;53.596;10.166;2023-08-12T00:04:05;19.27;;;17.98;;
16171;SDS011;8192;53.596;10.166;2023-08-12T00:06:32;20.08;;;18.88;;
16171;SDS011;8192;53.596;10.166;2023-08-12T00:08:59;20.08;;;18.48;;
16171;SDS011;8192;53.596;10.166;2023-08-12T00:11:29;19.92;;;18.45;;
16171;SDS011;8192;53.596;10.166;2023-08-12T00:13:55;21.08;;;18.98;;
16171;SDS011;8192;53.596;10.166;2023-08-12T00:16:22;20.20;;;18.70;;
16171;SDS011;8192;53.596;10.166;2023-08-12T00:18:51;19.40;;;18.13;;
16171;SDS011;8192;53.596;10.166;2023-08-12T00:21:18;19.45;;;18.25;;
16171;SDS011;8192;53.596;10.166;2023-08-12T00:23:45;20.00;;;18.70;;
16171;SDS011;8192;53.596;10.166;2023-08-12T00:26:14;19.33;;;18.15;;
16171;SDS011;8192;53.596;10.166;2023-08-12T00:28:42;19.13;;;17.83;;
16171;SDS011;8192;53.596;10.166;2023-08-12T00:31:09;19.90;;;18.60;;
16171;SDS011;8192;53.596;10.166;2023-08-12T00:33:36;19.75;;;18.45;;
16171;SDS011;8192;53.596;10.166;2023-08-12T00:36:05;20.27;;;18.80;;
16171;SDS011;8192;53.596;10.166;2023-08-12T00:38:32;20.08;;;18.58;;
16171;SDS011;8192;53.596;10.166;2023-08-12T00:40:59;20.45;;;18.38;;
16171;SDS011;8192;53.596;10.166;2023-08-12T00:43:26;20.10;;;18.70;;
16171;SDS011;8192;53.596;10.166;2023-08-12T00:45:53;20.13;;;18.60;;
16171;SDS011;8192;53.596;10.166;2023-08-12T00:48:20;20.35;;;18.75;;
16171;SDS011;8192;53.596;10.166;2023-08-12T00:50:48;19.67;;;18.38;;
16171;SDS011;8192;53.596;10.166;2023-08-12T00:53:17;19.65;;;18.17;;
16171;SDS011;8192;53.596;10.166;2023-08-12T00:55:44;19.70;;;18.25;;
16171;SDS011;8192;53.596;10.166;2023-08-12T00:58:11;19.80;;;18.50;;
16171;SDS011;8192;53.596;10.166;2023-08-12T01:00:38;19.50;;;18.30;;
16171;SDS011;8192;53.596;10.166;2023-08-12T01:03:05;19.95;;;18.45;;
16171;SDS011;8192;53.596;10.166;2023-08-12T01:05:33;19.73;;;18.35;;
16171;SDS011;8192;53.596;10.166;2023-08-12T01:08:00;19.38;;;18.08;;
16171;SDS011;8192;53.596;10.166;2023-08-12T01:10:29;19.15;;;17.75;;
16171;SDS011;8192;53.596;10.166;2023-08-12T01:13:04;19.85;;;18.45;;
16171;SDS011;8192;53.596;10.166;2023-08-12T01:15:39;19.15;;;17.90;;
16171;SDS011;8192;53.596;10.166;2023-08-12T01:18:10;19.67;;;18.33;;
16171;SDS011;8192;53.596;10.166;2023-08-12T01:20:38;19.80;;;18.42;;
16171;SDS011;8192;53.596;10.166;2023-08-12T01:23:09;19.40;;;18.02;;
16171;SDS011;8192;53.596;10.166;2023-08-12T01:25:38;19.85;;;18.55;;
16171;SDS011;8192;53.596;10.166;2023-08-12T01:28:05;20.02;;;18.45;;
16171;SDS011;8192;53.596;10.166;2023-08-12T01:30:32;19.70;;;18.30;;
16171;SDS011;8192;53.596;10.166;2023-08-12T01:33:03;20.17;;;18.65;;
16171;SDS011;8192;53.596;10.166;2023-08-12T01:35:38;19.27;;;17.98;;
16171;SDS011;8192;53.596;10.166;2023-08-12T01:38:11;19.23;;;18.02;;
16171;SDS011;8192;53.596;10.166;2023-08-12T01:40:39;19.95;;;18.65;;
16171;SDS011;8192;53.596;10.166;2023-08-12T01:43:08;19.58;;;18.27;;
16171;SDS011;8192;53.596;10.166;2023-08-12T01:45:35;19.55;;;18.33;;
16171;SDS011;8192;53.596;10.166;2023-08-12T01:48:02;19.77;;;18.42;;
16171;SDS011;8192;53.596;10.166;2023-08-12T01:50:29;19.75;;;18.25;;
16171;SDS011;8192;53.596;10.166;2023-08-12T01:52:56;20.55;;;18.70;;
16171;SDS011;8192;53.596;10.166;2023-08-12T01:55:25;20.63;;;19.15;;
16171;SDS011;8192;53.596;10.166;2023-08-12T01:57:52;20.70;;;19.08;;
16171;SDS011;8192;53.596;10.166;2023-08-12T02:00:19;20.83;;;19.15;;
16171;SDS011;8192;53.596;10.166;2023-08-12T02:02:46;20.35;;;18.75;;
16171;SDS011;8192;53.596;10.166;2023-08-12T02:05:13;20.33;;;18.83;;
16171;SDS011;8192;53.596;10.166;2023-08-12T02:07:41;20.10;;;18.65;;
16171;SDS011;8192;53.596;10.166;2023-08-12T02:10:08;19.83;;;18.52;;
16171;SDS011;8192;53.596;10.166;2023-08-12T02:12:37;19.88;;;18.58;;
16171;SDS011;8192;53.596;10.166;2023-08-12T02:15:04;19.75;;;18.25;;
16171;SDS011;8192;53.596;10.166;2023-08-12T02:17:32;20.65;;;18.80;;
16171;SDS011;8192;53.596;10.166;2023-08-12T02:19:59;19.70;;;18.15;;
16171;SDS011;8192;53.596;10.166;2023-08-12T02:22:26;19.55;;;18.20;;
16171;SDS011;8192;53.596;10.166;2023-08-12T02:24:54;19.88;;;18.13;;
16171;SDS011;8192;53.596;10.166;2023-08-12T02:27:21;19.80;;;18.30;;
16171;SDS011;8192;53.596;10.166;2023-08-12T02:29:49;19.35;;;17.95;;
16171;SDS011;8192;53.596;10.166;2023-08-12T02:32:16;19.50;;;17.73;;
16171;SDS011;8192;53.596;10.166;2023-08-12T02:34:44;19.52;;;18.02;;
16171;SDS011;8192;53.596;10.166;2023-08-12T02:37:11;20.42;;;18.67;;
16171;SDS011;8192;53.596;10.166;2023-08-12T02:39:37;20.10;;;18.60;;
16171;SDS011;8192;53.596;10.166;2023-08-12T02:42:05;20.33;;;18.63;;
16171;SDS011;8192;53.596;10.166;2023-08-12T02:44:32;19.60;;;18.25;;
16171;SDS011;8192;53.596;10.166;2023-08-12T02:47:01;19.30;;;18.10;;
16171;SDS011;8192;53.596;10.166;2023-08-12T02:49:28;20.45;;;18.85;;
16171;SDS011;8192;53.596;10.166;2023-08-12T02:51:55;20.23;;;18.73;;
16171;SDS011;8192;53.596;10.166;2023-08-12T02:54:22;20.70;;;18.92;;
16171;SDS011;8192;53.596;10.166;2023-08-12T02:56:49;20.17;;;18.77;;
16171;SDS011;8192;53.596;10.166;2023-08-12T02:59:17;20.15;;;18.85;;
16171;SDS011;8192;53.596;10.166;2023-08-12T03:01:44;19.75;;;18.35;;
16171;SDS011;8192;53.596;10.166;2023-08-12T03:04:13;20.15;;;18.80;;
16171;SDS011;8192;53.596;10.166;2023-08-12T03:06:40;19.20;;;17.98;;
16171;SDS011;8192;53.596;10.166;2023-08-12T03:09:07;19.92;;;18.52;;
16171;SDS011;8192;53.596;10.166;2023-08-12T03:11:34;19.55;;;18.25;;
16171;SDS011;8192;53.596;10.166;2023-08-12T03:14:01;20.00;;;18.27;;
16171;SDS011;8192;53.596;10.166;2023-08-12T03:16:28;19.95;;;18.42;;
16171;SDS011;8192;53.596;10.166;2023-08-12T03:18:56;20.17;;;18.60;;
16171;SDS011;8192;53.596;10.166;2023-08-12T03:21:24;19.27;;;18.08;;
16171;SDS011;8192;53.596;10.166;2023-08-12T03:23:51;20.25;;;18.83;;
16171;SDS011;8192;53.596;10.166;2023-08-12T03:26:19;20.73;;;19.00;;
16171;SDS011;8192;53.596;10.166;2023-08-12T03:28:46;20.17;;;18.85;;
16171;SDS011;8192;53.596;10.166;2023-08-12T03:31:13;20.48;;;18.67;;
16171;SDS011;8192;53.596;10.166;2023-08-12T03:33:40;20.42;;;19.02;;
16171;SDS011;8192;53.596;10.166;2023-08-12T03:36:07;19.98;;;18.60;;
16171;SDS011;8192;53.596;10.166;2023-08-12T03:38:35;20.15;;;18.75;;
16171;SDS011;8192;53.596;10.166;2023-08-12T03:41:02;20.17;;;18.88;;
16171;SDS011;8192;53.596;10.166;2023-08-12T03:43:29;20.77;;;19.20;;
16171;SDS011;8192;53.596;10.166;2023-08-12T03:45:56;21.23;;;19.45;;
16171;SDS011;8192;53.596;10.166;2023-08-12T03:48:23;21.45;;;19.75;;
16171;SDS011;8192;53.596;10.166;2023-08-12T03:50:49;20.55;;;19.15;;
16171;SDS011;8192;53.596;10.166;2023-08-12T03:53:16;20.35;;;19.05;;
16171;SDS011;8192;53.596;10.166;2023-08-12T03:55:45;20.13;;;18.63;;
16171;SDS011;8192;53.596;10.166;2023-08-12T03:58:12;20.85;;;19.23;;
16171;SDS011;8192;53.596;10.166;2023-08-12T04:00:40;21.55;;;19.83;;
16171;SDS011;8192;53.596;10.166;2023-08-12T04:03:08;21.35;;;19.83;;
16171;SDS011;8192;53.596;10.166;2023-08-12T04:05:35;20.88;;;19.38;;
16171;SDS011;8192;53.596;10.166;2023-08-12T04:08:02;21.40;;;19.80;;
16171;SDS011;8192;53.596;10.166;2023-08-12T04:10:29;20.95;;;19.42;;
16171;SDS011;8192;53.596;10.166;2023-08-12T04:12:58;20.58;;;19.27;;
16171;SDS011;8192;53.596;10.166;2023-08-12T04:15:25;20.73;;;19.23;;
16171;SDS011;8192;53.596;10.166;2023-08-12T04:17:53;20.55;;;19.15;;
16171;SDS011;8192;53.596;10.166;2023-08-12T04:20:20;20.40;;;19.10;;
16171;SDS011;8192;53.596;10.166;2023-08-12T04:22:47;20.40;;;19.10;;
16171;SDS011;8192;53.596;10.166;2023-08-12T04:25:15;20.60;;;19.10;;
16171;SDS011;8192;53.596;10.166;2023-08-12T04:27:42;20.65;;;19.05;;
16171;SDS011;8192;53.596;10.166;2023-08-12T04:30:12;21.00;;;19.33;;
16171;SDS011;8192;53.596;10.166;2023-08-12T04:32:39;20.80;;;19.27;;
16171;SDS011;8192;53.596;10.166;2023-08-12T04:35:06;19.95;;;18.65;;
16171;SDS011;8192;53.596;10.166;2023-08-12T04:37:34;20.98;;;19.48;;
16171;SDS011;8192;53.596;10.166;2023-08-12T04:40:02;20.13;;;18.77;;
16171;SDS011;8192;53.596;10.166;2023-08-12T04:42:29;20.00;;;18.50;;
16171;SDS011;8192;53.596;10.166;2023-08-12T04:44:57;20.75;;;19.10;;
16171;SDS011;8192;53.596;10.166;2023-08-12T04:47:25;20.73;;;19.15;;
16171;SDS011;8192;53.596;10.166;2023-08-12T04:49:52;20.83;;;19.17;;
16171;SDS011;8192;53.596;10.166;2023-08-12T04:52:19;20.45;;;19.00;;
16171;SDS011;8192;53.596;10.166;2023-08-12T04:54:46;21.15;;;19.73;;
16171;SDS011;8192;53.596;10.166;2023-08-12T04:57:13;21.13;;;19.48;;
16171;SDS011;8192;53.596;10.166;2023-08-12T04:59:41;20.05;;;18.70;;
16171;SDS011;8192;53.596;10.166;2023-08-12T05:02:07;20.00;;;18.70;;
16171;SDS011;8192;53.596;10.166;2023-08-12T05:04:36;21.00;;;19.38;;
16171;SDS011;8192;53.596;10.166;2023-08-12T05:07:02;19.98;;;18.67;;
16171;SDS011;8192;53.596;10.166;2023-08-12T05:09:29;20.63;;;18.92;;
16171;SDS011;8192;53.596;10.166;2023-08-12T05:11:57;20.35;;;18.95;;
16171;SDS011;8192;53.596;10.166;2023-08-12T05:14:24;20.33;;;18.83;;
16171;SDS011;8192;53.596;10.166;2023-08-12T05:16:51;20.63;;;19.20;;
16171;SDS011;8192;53.596;10.166;2023-08-12T05:19:19;20.77;;;19.30;;
16171;SDS011;8192;53.596;10.166;2023-08-12T05:21:47;20.75;;;19.02;;
16171;SDS011;8192;53.596;10.166;2023-08-12T05:24:16;20.30;;;18.90;;
16171;SDS011;8192;53.596;10.166;2023-08-12T05:26:42;20.17;;;18.83;;
16171;SDS011;8192;53.596;10.166;2023-08-12T05:29:09;20.40;;;19.10;;
16171;SDS011;8192;53.596;10.166;2023-08-12T05:31:36;20.25;;;18.73;;
16171;SDS011;8192;53.596;10.166;2023-08-12T05:34:03;20.50;;;19.00;;
16171;SDS011;8192;53.596;10.166;2023-08-12T05:36:30;21.45;;;19.70;;
16171;SDS011;8192;53.596;10.166;2023-08-12T05:38:59;21.58;;;19.90;;
16171;SDS011;8192;53.596;10.166;2023-08-12T05:41:26;20.95;;;19.45;;
16171;SDS011;8192;53.596;10.166;2023-08-12T05:43:53;21.10;;;19.17;;
16171;SDS011;8192;53.596;10.166;2023-08-12T05:46:20;20.85;;;19.27;;
16171;SDS011;8192;53.596;10.166;2023-08-12T05:48:47;20.25;;;18.65;;
16171;SDS011;8192;53.596;10.166;2023-08-12T05:51:14;20.17;;;18.77;;
16171;SDS011;8192;53.596;10.166;2023-08-12T05:53:41;21.38;;;19.63;;
16171;SDS011;8192;53.596;10.166;2023-08-12T05:56:09;20.73;;;19.20;;
16171;SDS011;8192;53.596;10.166;2023-08-12T05:58:36;21.77;;;20.00;;
16171;SDS011;8192;53.596;10.166;2023-08-12T06:01:04;21.42;;;19.73;;
16171;SDS011;8192;53.596;10.166;2023-08-12T06:03:31;22.50;;;20.45;;
16171;SDS011;8192;53.596;10.166;2023-08-12T06:05:58;22.75;;;20.58;;
16171;SDS011;8192;53.596;10.166;2023-08-12T06:08:25;22.77;;;20.95;;
16171;SDS011;8192;53.596;10.166;2023-08-12T06:10:53;22.73;;;20.92;;
16171;SDS011;8192;53.596;10.166;2023-08-12T06:13:24;22.83;;;20.92;;
16171;SDS011;8192;53.596;10.166;2023-08-12T06:15:51;23.65;;;21.23;;
16171;SDS011;8192;53.596;10.166;2023-08-12T06:18:18;23.63;;;21.83;;
16171;SDS011;8192;53.596;10.166;2023-08-12T06:20:45;23.45;;;21.50;;
16171;SDS011;8192;53.596;10.166;2023-08-12T06:23:13;23.48;;;21.73;;
16171;SDS011;8192;53.596;10.166;2023-08-12T06:25:41;22.95;;;21.23;;
16171;SDS011;8192;53.596;10.166;2023-08-12T06:28:11;23.17;;;21.33;;
16171;SDS011;8192;53.596;10.166;2023-08-12T06:30:40;23.92;;;22.02;;
16171;SDS011;8192;53.596;10.166;2023-08-12T06:33:12;23.75;;;22.05;;
16171;SDS011;8192;53.596;10.166;2023-08-12T06:35:39;23.98;;;22.02;;
16171;SDS011;8192;53.596;10.166;2023-08-12T06:38:06;24.23;;;21.90;;
16171;SDS011;8192;53.596;10.166;2023-08-12T06:40:35;23.27;;;21.30;;
16171;SDS011;8192;53.596;10.166;2023-08-12T06:43:01;23.00;;;21.13;;
16171;SDS011;8192;53.596;10.166;2023-08-12T06:45:29;23.83;;;21.92;;
16171;SDS011;8192;53.596;10.166;2023-08-12T06:47:57;23.65;;;21.77;;
16171;SDS011;8192;53.596;10.166;2023-08-12T06:50:24;23.95;;;21.98;;
16171;SDS011;8192;53.596;10.166;2023-08-12T06:52:51;23.83;;;21.90;;
16171;SDS011;8192;53.596;10.166;2023-08-12T06:55:18;24.50;;;22.42;;
16171;SDS011;8192;53.596;10.166;2023-08-12T06:57:45;25.13;;;23.13;;
16171;SDS011;8192;53.596;10.166;2023-08-12T07:00:12;25.15;;;23.20;;
16171;SDS011;8192;53.596;10.166;2023-08-12T07:02:39;25.85;;;23.73;;
16171;SDS011;8192;53.596;10.166;2023-08-12T07:05:10;25.27;;;23.33;;
16171;SDS011;8192;53.596;10.166;2023-08-12T07:07:37;25.95;;;24.00;;
16171;SDS011;8192;53.596;10.166;2023-08-12T07:10:04;25.80;;;23.60;;
16171;SDS011;8192;53.596;10.166;2023-08-12T07:12:33;25.98;;;23.65;;
16171;SDS011;8192;53.596;10.166;2023-08-12T07:15:00;26.20;;;24.10;;
16171;SDS011;8192;53.596;10.166;2023-08-12T07:17:27;25.73;;;23.83;;
16171;SDS011;8192;53.596;10.166;2023-08-12T07:19:54;26.73;;;24.58;;
16171;SDS011;8192;53.596;10.166;2023-08-12T07:22:22;26.50;;;24.30;;
16171;SDS011;8192;53.596;10.166;2023-08-12T07:24:49;26.45;;;24.45;;
16171;SDS011;8192;53.596;10.166;2023-08-12T07:27:17;26.70;;;24.60;;
16171;SDS011;8192;53.596;10.166;2023-08-12T07:29:45;26.40;;;24.25;;
16171;SDS011;8192;53.596;10.166;2023-08-12T07:32:12;27.27;;;25.05;;
16171;SDS011;8192;53.596;10.166;2023-08-12T07:34:40;26.33;;;24.25;;
16171;SDS011;8192;53.596;10.166;2023-08-12T07:37:08;26.95;;;24.77;;
16171;SDS011;8192;53.596;10.166;2023-08-12T07:39:36;26.23;;;24.17;;
16171;SDS011;8192;53.596;10.166;2023-08-12T07:42:05;27.20;;;25.00;;
16171;SDS011;8192;53.596;10.166;2023-08-12T07:44:32;25.90;;;23.92;;
16171;SDS011;8192;53.596;10.166;2023-08-12T07:46:59;26.80;;;24.60;;
16171;SDS011;8192;53.596;10.166;2023-08-12T07:49:26;27.40;;;25.02;;
16171;SDS011;8192;53.596;10.166;2023-08-12T07:51:53;26.35;;;24.25;;
16171;SDS011;8192;53.596;10.166;2023-08-12T07:54:20;26.95;;;24.83;;
16171;SDS011;8192;53.596;10.166;2023-08-12T07:56:48;27.50;;;25.15;;
16171;SDS011;8192;53.596;10.166;2023-08-12T07:59:15;28.02;;;25.77;;
16171;SDS011;8192;53.596;10.166;2023-08-12T08:01:43;26.80;;;24.35;;
16171;SDS011;8192;53.596;10.166;2023-08-12T08:04:10;25.77;;;23.88;;
16171;SDS011;8192;53.596;10.166;2023-08-12T08:06:37;25.92;;;23.95;;
16171;SDS011;8192;53.596;10.166;2023-08-12T08:09:04;26.17;;;24.10;;
16171;SDS011;8192;53.596;10.166;2023-08-12T08:11:31;26.63;;;24.73;;
16171;SDS011;8192;53.596;10.166;2023-08-12T08:14:01;27.15;;;25.08;;
16171;SDS011;8192;53.596;10.166;2023-08-12T08:16:28;26.75;;;24.58;;
16171;SDS011;8192;53.596;10.166;2023-08-12T08:18:55;27.15;;;24.67;;
16171;SDS011;8192;53.596;10.166;2023-08-12T08:21:22;26.85;;;24.70;;
16171;SDS011;8192;53.596;10.166;2023-08-12T08:23:49;26.80;;;24.50;;
16171;SDS011;8192;53.596;10.166;2023-08-12T08:26:16;26.10;;;24.20;;
16171;SDS011;8192;53.596;10.166;2023-08-12T08:28:43;27.13;;;24.92;;
16171;SDS011;8192;53.596;10.166;2023-08-12T08:31:12;26.92;;;24.55;;
16171;SDS011;8192;53.596;10.166;2023-08-12T08:33:39;26.40;;;24.35;;
16171;SDS011;8192;53.596;10.166;2023-08-12T08:36:06;25.92;;;23.73;;
16171;SDS011;8192;53.596;10.166;2023-08-12T08:38:33;25.92;;;23.92;;
16171;SDS011;8192;53.596;10.166;2023-08-12T08:44:20;26.23;;;24.25;;
16171;SDS011;8192;53.596;10.166;2023-08-12T08:46:51;26.13;;;24.10;;
16171;SDS011;8192;53.596;10.166;2023-08-12T08:49:19;25.27;;;23.17;;
16171;SDS011;8192;53.596;10.166;2023-08-12T08:51:47;26.20;;;23.90;;
16171;SDS011;8192;53.596;10.166;2023-08-12T08:54:16;27.52;;;25.05;;
16171;SDS011;8192;53.596;10.166;2023-08-12T08:56:43;27.05;;;24.75;;
16171;SDS011;8192;53.596;10.166;2023-08-12T08:59:11;26.67;;;24.58;;
16171;SDS011;8192;53.596;10.166;2023-08-12T09:01:38;26.88;;;24.80;;
16171;SDS011;8192;53.596;10.166;2023-08-12T09:04:07;27.70;;;25.30;;
16171;SDS011;8192;53.596;10.166;2023-08-12T09:06:35;26.90;;;24.70;;
16171;SDS011;8192;53.596;10.166;2023-08-12T09:09:05;27.23;;;24.73;;
16171;SDS011;8192;53.596;10.166;2023-08-12T09:11:37;25.85;;;23.90;;
16171;SDS011;8192;53.596;10.166;2023-08-12T09:14:05;26.52;;;24.52;;
16171;SDS011;8192;53.596;10.166;2023-08-12T09:16:33;26.35;;;24.08;;
16171;SDS011;8192;53.596;10.166;2023-08-12T09:19:00;26.23;;;24.10;;
16171;SDS011;8192;53.596;10.166;2023-08-12T09:21:29;26.67;;;24.58;;
16171;SDS011;8192;53.596;10.166;2023-08-12T09:23:56;25.25;;;23.45;;
16171;SDS011;8192;53.596;10.166;2023-08-12T09:26:28;26.35;;;24.02;;
16171;SDS011;8192;53.596;10.166;2023-08-12T09:28:55;25.80;;;23.88;;
16171;SDS011;8192;53.596;10.166;2023-08-12T09:31:26;26.05;;;23.88;;
16171;SDS011;8192;53.596;10.166;2023-08-12T09:33:57;24.73;;;22.90;;
16171;SDS011;8192;53.596;10.166;2023-08-12T09:36:29;25.98;;;23.90;;
16171;SDS011;8192;53.596;10.166;2023-08-12T09:38:57;26.20;;;24.10;;
16171;SDS011;8192;53.596;10.166;2023-08-12T09:41:26;26.83;;;24.55;;
16171;SDS011;8192;53.596;10.166;2023-08-12T09:43:53;25.85;;;23.80;;
16171;SDS011;8192;53.596;10.166;2023-08-12T09:46:21;25.80;;;23.80;;
16171;SDS011;8192;53.596;10.166;2023-08-12T09:48:49;26.33;;;24.25;;
16171;SDS011;8192;53.596;10.166;2023-08-12T09:51:18;26.20;;;24.10;;
16171;SDS011;8192;53.596;10.166;2023-08-12T09:53:48;26.00;;;23.90;;
16171;SDS011;8192;53.596;10.166;2023-08-12T09:56:17;26.70;;;24.60;;
16171;SDS011;8192;53.596;10.166;2023-08-12T09:58:47;25.35;;;23.40;;
16171;SDS011;8192;53.596;10.166;2023-08-12T10:01:15;25.90;;;23.55;;
16171;SDS011;8192;53.596;10.166;2023-08-12T10:03:47;26.08;;;23.98;;
16171;SDS011;8192;53.596;10.166;2023-08-12T10:06:16;26.52;;;24.20;;
16171;SDS011;8192;53.596;10.166;2023-08-12T10:08:45;26.40;;;24.23;;
16171;SDS011;8192;53.596;10.166;2023-08-12T10:11:14;26.13;;;24.13;;
16171;SDS011;8192;53.596;10.166;2023-08-12T10:13:41;25.85;;;23.83;;
16171;SDS011;8192;53.596;10.166;2023-08-12T10:16:09;26.80;;;24.35;;
16171;SDS011;8192;53.596;10.166;2023-08-12T10:18:36;25.50;;;23.40;;
16171;SDS011;8192;53.596;10.166;2023-08-12T10:21:05;26.60;;;24.40;;
16171;SDS011;8192;53.596;10.166;2023-08-12T10:23:35;26.23;;;24.05;;
16171;SDS011;8192;53.596;10.166;2023-08-12T10:26:05;25.67;;;23.83;;
16171;SDS011;8192;53.596;10.166;2023-08-12T10:28:34;25.98;;;23.60;;
16171;SDS011;8192;53.596;10.166;2023-08-12T10:31:04;26.33;;;24.15;;
16171;SDS011;8192;53.596;10.166;2023-08-12T10:33:34;26.67;;;24.25;;
16171;SDS011;8192;53.596;10.166;2023-08-12T10:36:03;26.83;;;24.63;;
16171;SDS011;8192;53.596;10.166;2023-08-12T10:38:31;27.45;;;25.00;;
16171;SDS011;8192;53.596;10.166;2023-08-12T10:41:18;26.25;;;24.05;;
16171;SDS011;8192;53.596;10.166;2023-08-12T10:43:55;27.52;;;25.33;;
16171;SDS011;8192;53.596;10.166;2023-08-12T10:46:28;26.02;;;23.95;;
16171;SDS011;8192;53.596;10.166;2023-08-12T10:48:58;27.90;;;25.52;;
16171;SDS011;8192;53.596;10.166;2023-08-12T10:51:41;27.38;;;25.27;;
16171;SDS011;8192;53.596;10.166;2023-08-12T10:54:20;26.83;;;24.70;;
16171;SDS011;8192;53.596;10.166;2023-08-12T10:59:53;27.55;;;25.15;;
16171;SDS011;8192;53.596;10.166;2023-08-12T11:02:27;26.52;;;24.33;;
16171;SDS011;8192;53.596;10.166;2023-08-12T11:04:56;27.20;;;25.02;;
16171;SDS011;8192;53.596;10.166;2023-08-12T11:07:28;26.65;;;24.40;;
16171;SDS011;8192;53.596;10.166;2023-08-12T11:09:59;27.33;;;25.33;;
16171;SDS011;8192;53.596;10.166;2023-08-12T11:12:30;27.98;;;25.50;;
16171;SDS011;8192;53.596;10.166;2023-08-12T11:15:01;27.25;;;25.05;;
16171;SDS011;8192;53.596;10.166;2023-08-12T11:17:33;27.02;;;24.75;;
16171;SDS011;8192;53.596;10.166;2023-08-12T11:20:02;26.63;;;24.60;;
16171;SDS011;8192;53.596;10.166;2023-08-12T11:22:32;25.58;;;23.67;;
16171;SDS011;8192;53.596;10.166;2023-08-12T11:25:04;24.38;;;22.48;;
16171;SDS011;8192;53.596;10.166;2023-08-12T11:27:40;24.50;;;22.35;;
16171;SDS011;8192;53.596;10.166;2023-08-12T11:30:11;22.50;;;20.98;;
16171;SDS011;8192;53.596;10.166;2023-08-12T11:32:40;24.13;;;22.13;;
16171;SDS011;8192;53.596;10.166;2023-08-12T11:35:08;23.42;;;21.70;;
16171;SDS011;8192;53.596;10.166;2023-08-12T11:37:37;23.98;;;22.25;;
16171;SDS011;8192;53.596;10.166;2023-08-12T11:40:05;23.45;;;21.75;;
16171;SDS011;8192;53.596;10.166;2023-08-12T11:42:34;23.17;;;21.55;;
16171;SDS011;8192;53.596;10.166;2023-08-12T11:45:02;23.42;;;21.55;;
16171;SDS011;8192;53.596;10.166;2023-08-12T11:47:31;23.00;;;21.10;;
16171;SDS011;8192;53.596;10.166;2023-08-12T11:49:59;23.20;;;21.40;;
16171;SDS011;8192;53.596;10.166;2023-08-12T11:52:28;23.13;;;21.20;;
16171;SDS011;8192;53.596;10.166;2023-08-12T11:54:56;22.45;;;20.80;;
16171;SDS011;8192;53.596;10.166;2023-08-12T11:57:23;23.15;;;21.38;;
16171;SDS011;8192;53.596;10.166;2023-08-12T11:59:50;23.30;;;21.52;;
16171;SDS011;8192;53.596;10.166;2023-08-12T12:02:17;23.88;;;22.00;;
16171;SDS011;8192;53.596;10.166;2023-08-12T12:04:45;23.65;;;21.75;;
16171;SDS011;8192;53.596;10.166;2023-08-12T12:07:18;24.02;;;22.15;;
16171;SDS011;8192;53.596;10.166;2023-08-12T12:09:46;24.08;;;22.10;;
16171;SDS011;8192;53.596;10.166;2023-08-12T12:12:16;23.30;;;21.50;;
16171;SDS011;8192;53.596;10.166;2023-08-12T12:14:43;23.85;;;22.05;;
16171;SDS011;8192;53.596;10.166;2023-08-12T12:17:09;23.65;;;21.80;;
16171;SDS011;8192;53.596;10.166;2023-08-12T12:19:39;24.05;;;22.30;;
16171;SDS011;8192;53.596;10.166;2023-08-12T12:22:08;25.80;;;23.80;;
16171;SDS011;8192;53.596;10.166;2023-08-12T12:24:43;25.10;;;23.02;;
16171;SDS011;8192;53.596;10.166;2023-08-12T12:27:11;25.25;;;23.20;;
16171;SDS011;8192;53.596;10.166;2023-08-12T12:29:39;28.65;;;26.00;;
16171;SDS011;8192;53.596;10.166;2023-08-12T12:32:06;27.30;;;24.90;;
16171;SDS011;8192;53.596;10.166;2023-08-12T12:34:33;29.00;;;26.45;;
16171;SDS011;8192;53.596;10.166;2023-08-12T12:37:00;29.23;;;26.52;;
16171;SDS011;8192;53.596;10.166;2023-08-12T12:39:29;28.10;;;25.63;;
16171;SDS011;8192;53.596;10.166;2023-08-12T12:41:56;27.77;;;25.35;;
16171;SDS011;8192;53.596;10.166;2023-08-12T12:44:24;28.00;;;25.50;;
16171;SDS011;8192;53.596;10.166;2023-08-12T12:46:53;27.50;;;25.05;;
16171;SDS011;8192;53.596;10.166;2023-08-12T12:49:20;28.17;;;25.67;;
16171;SDS011;8192;53.596;10.166;2023-08-12T12:51:47;28.60;;;26.10;;
16171;SDS011;8192;53.596;10.166;2023-08-12T12:54:15;25.83;;;23.77;;
16171;SDS011;8192;53.596;10.166;2023-08-12T12:56:43;26.92;;;24.42;;
16171;SDS011;8192;53.596;10.166;2023-08-12T12:59:10;26.40;;;24.10;;
16171;SDS011;8192;53.596;10.166;2023-08-12T13:01:39;26.73;;;24.42;;
16171;SDS011;8192;53.596;10.166;2023-08-12T13:04:06;25.90;;;23.50;;
16171;SDS011;8192;53.596;10.166;2023-08-12T13:06:34;25.33;;;23.13;;
16171;SDS011;8192;53.596;10.166;2023-08-12T13:09:02;26.55;;;24.15;;
16171;SDS011;8192;53.596;10.166;2023-08-12T13:11:31;26.40;;;24.20;;
16171;SDS011;8192;53.596;10.166;2023-08-12T13:14:05;27.02;;;24.52;;
16171;SDS011;8192;53.596;10.166;2023-08-12T13:16:32;27.33;;;25.02;;
16171;SDS011;8192;53.596;10.166;2023-08-12T13:18:59;26.88;;;24.77;;
16171;SDS011;8192;53.596;10.166;2023-08-12T13:21:26;27.00;;;24.63;;
16171;SDS011;8192;53.596;10.166;2023-08-12T13:23:53;26.92;;;24.63;;
16171;SDS011;8192;53.596;10.166;2023-08-12T13:26:21;26.90;;;24.35;;
16171;SDS011;8192;53.596;10.166;2023-08-12T13:28:50;26.77;;;24.48;;
16171;SDS011;8192;53.596;10.166;2023-08-12T13:31:19;27.27;;;24.70;;
16171;SDS011;8192;53.596;10.166;2023-08-12T13:33:46;26.10;;;23.90;;
16171;SDS011;8192;53.596;10.166;2023-08-12T13:36:13;27.60;;;25.10;;
16171;SDS011;8192;53.596;10.166;2023-08-12T13:38:40;27.33;;;24.85;;
16171;SDS011;8192;53.596;10.166;2023-08-12T13:41:07;28.23;;;25.83;;
16171;SDS011;8192;53.596;10.166;2023-08-12T13:43:34;29.10;;;26.45;;
16171;SDS011;8192;53.596;10.166;2023-08-12T13:46:01;30.27;;;27.58;;
16171;SDS011;8192;53.596;10.166;2023-08-12T13:48:30;31.02;;;28.10;;
16171;SDS011;8192;53.596;10.166;2023-08-12T13:50:59;31.30;;;28.50;;
16171;SDS011;8192;53.596;10.166;2023-08-12T13:53:26;31.65;;;28.75;;
16171;SDS011;8192;53.596;10.166;2023-08-12T13:55:53;32.15;;;29.13;;
16171;SDS011;8192;53.596;10.166;2023-08-12T13:58:19;31.00;;;28.23;;
16171;SDS011;8192;53.596;10.166;2023-08-12T14:00:46;31.27;;;28.50;;
16171;SDS011;8192;53.596;10.166;2023-08-12T14:03:13;31.02;;;28.30;;
16171;SDS011;8192;53.596;10.166;2023-08-12T14:05:43;31.05;;;28.10;;
16171;SDS011;8192;53.596;10.166;2023-08-12T14:08:11;31.40;;;28.17;;
16171;SDS011;8192;53.596;10.166;2023-08-12T14:10:38;32.17;;;29.05;;
16171;SDS011;8192;53.596;10.166;2023-08-12T14:13:05;31.02;;;28.25;;
16171;SDS011;8192;53.596;10.166;2023-08-12T14:15:32;32.05;;;29.15;;
16171;SDS011;8192;53.596;10.166;2023-08-12T14:18:00;31.67;;;28.80;;
16171;SDS011;8192;53.596;10.166;2023-08-12T14:20:27;31.48;;;28.58;;
16171;SDS011;8192;53.596;10.166;2023-08-12T14:22:56;32.88;;;29.98;;
16171;SDS011;8192;53.596;10.166;2023-08-12T14:25:24;32.05;;;29.15;;
16171;SDS011;8192;53.596;10.166;2023-08-12T14:27:51;31.10;;;28.25;;
16171;SDS011;8192;53.596;10.166;2023-08-12T14:30:18;30.17;;;27.50;;
16171;SDS011;8192;53.596;10.166;2023-08-12T14:32:49;29.55;;;26.55;;